Time;durP1;ratioP1;P1;durP2;ratioP2;P2;SDS_P1;SDS_P2;PMS_P1;PMS_P2;Temp;Humidity;BMP_temperature;BMP_pressure;BME280_temperature;BME280_humidity;BME280_pressure;Samples;Min_cycle;Max_cycle;Signal;HPM_P1;HPM_P2
2022/04/24 00:01:02;;;;;;;6.80;6.10;;;12.40;99.90;;;;;;5090961;28;20444;-81
2022/04/24 00:03:48;;;;;;;7.53;6.13;;;12.40;99.90;;;;;;5090429;28;20448;-81
2022/04/24 00:06:34;;;;;;;7.10;6.30;;;12.40;99.90;;;;;;5094323;28;20444;-80
2022/04/24 00:09:21;;;;;;;6.43;5.57;;;12.40;99.90;;;;;;5079830;28;20394;-80
2022/04/24 00:12:07;;;;;;;8.83;6.87;;;12.40;99.90;;;;;;5094274;28;20381;-81
2022/04/24 00:14:51;;;;;;;8.93;6.30;;;12.50;99.90;;;;;;5093883;28;20413;-80
2022/04/24 00:17:37;;;;;;;8.30;6.10;;;12.50;99.90;;;;;;5093990;28;20389;-81
2022/04/24 00:20:21;;;;;;;6.13;5.63;;;12.60;99.90;;;;;;5078256;28;20392;-81
2022/04/24 00:23:07;;;;;;;7.17;6.47;;;12.60;99.90;;;;;;5078720;28;20431;-80
2022/04/24 00:25:51;;;;;;;7.13;5.33;;;12.70;99.90;;;;;;5094480;28;20412;-81
2022/04/24 00:28:36;;;;;;;7.23;5.80;;;12.70;99.90;;;;;;5094370;28;20389;-80
2022/04/24 00:31:42;;;;;;;6.40;5.27;;;12.70;99.90;;;;;;5094381;28;20385;-81
2022/04/24 00:34:27;;;;;;;6.93;5.80;;;12.70;99.90;;;;;;5032833;28;20472;-81
2022/04/24 00:37:11;;;;;;;8.33;6.80;;;12.70;99.90;;;;;;5034374;28;20461;-81
2022/04/24 00:39:56;;;;;;;7.00;5.70;;;12.70;99.90;;;;;;5036628;28;20484;-80
2022/04/24 00:42:40;;;;;;;7.10;6.30;;;12.70;99.90;;;;;;5037470;28;20400;-79
2022/04/24 00:45:25;;;;;;;8.93;6.50;;;12.60;99.90;;;;;;5025187;28;20392;-78
2022/04/24 00:48:10;;;;;;;5.90;5.30;;;12.60;99.90;;;;;;5038858;28;20510;-79
2022/04/24 00:50:54;;;;;;;7.17;5.70;;;12.60;99.90;;;;;;5036602;28;20399;-79
2022/04/24 00:53:39;;;;;;;7.80;6.60;;;12.60;99.90;;;;;;5036506;28;20435;-79
2022/04/24 00:56:30;;;;;;;8.20;6.70;;;12.60;99.90;;;;;;5036374;28;20493;-79
2022/04/24 00:59:15;;;;;;;16.93;6.80;;;12.50;99.90;;;;;;5023055;28;20443;-81
2022/04/24 01:02:03;;;;;;;10.70;7.87;;;12.40;99.90;;;;;;5021971;28;20423;-79
2022/04/24 01:04:48;;;;;;;8.57;6.60;;;12.50;99.90;;;;;;5036150;28;20505;-80
2022/04/24 01:07:32;;;;;;;7.77;6.93;;;12.50;99.90;;;;;;5021757;28;20519;-80
2022/04/24 01:10:16;;;;;;;8.40;7.60;;;12.40;99.90;;;;;;5036074;28;20404;-80
2022/04/24 01:13:01;;;;;;;8.33;7.33;;;12.50;99.90;;;;;;5035157;28;20468;-79
2022/04/24 01:15:45;;;;;;;8.10;6.60;;;12.50;99.90;;;;;;5019969;28;20461;-80
2022/04/24 01:18:31;;;;;;;7.83;6.10;;;12.40;99.90;;;;;;5077591;28;20473;-79
2022/04/24 01:21:16;;;;;;;12.67;8.67;;;12.50;99.90;;;;;;5082489;28;20437;-79
2022/04/24 01:24:03;;;;;;;8.40;7.50;;;12.60;99.90;;;;;;5096586;28;20416;-80
2022/04/24 01:26:48;;;;;;;10.13;6.77;;;12.50;99.90;;;;;;5095206;28;20948;-80
2022/04/24 01:29:33;;;;;;;9.40;7.00;;;12.40;99.90;;;;;;5094533;28;20389;-80
2022/04/24 01:32:17;;;;;;;8.70;7.80;;;12.50;99.90;;;;;;5096315;28;20405;-81
2022/04/24 01:35:04;;;;;;;15.37;8.27;;;12.50;99.90;;;;;;5082274;28;20404;-80
2022/04/24 01:37:49;;;;;;;8.67;7.00;;;12.40;99.90;;;;;;5092828;28;20392;-80
2022/04/24 01:40:33;;;;;;;7.87;6.10;;;12.40;99.90;;;;;;5097877;28;20424;-79
2022/04/24 01:43:18;;;;;;;9.20;7.00;;;12.30;99.90;;;;;;5099840;28;20412;-80
2022/04/24 01:46:04;;;;;;;8.30;7.30;;;12.30;99.90;;;;;;5097115;28;20404;-79
2022/04/24 01:48:49;;;;;;;11.67;8.33;;;12.30;99.90;;;;;;5092696;28;20400;-80
2022/04/24 01:51:34;;;;;;;10.53;7.90;;;12.30;99.90;;;;;;5068624;28;20420;-80
2022/04/24 01:54:18;;;;;;;9.20;7.50;;;12.30;99.90;;;;;;5092844;28;20446;-80
2022/04/24 01:57:02;;;;;;;7.93;7.13;;;12.30;99.90;;;;;;5076723;28;20412;-80
2022/04/24 01:59:47;;;;;;;13.70;8.10;;;12.20;99.90;;;;;;5091698;28;20381;-80
2022/04/24 02:02:32;;;;;;;9.77;7.73;;;12.00;99.90;;;;;;5090360;28;20389;-81
2022/04/24 02:05:17;;;;;;;9.13;7.80;;;12.00;99.90;;;;;;5091146;28;20392;-81
2022/04/24 02:08:02;;;;;;;8.93;7.53;;;12.00;99.90;;;;;;5091495;28;20443;-79
2022/04/24 02:10:47;;;;;;;12.17;7.80;;;12.00;99.90;;;;;;5091819;28;20377;-80
2022/04/24 02:13:33;;;;;;;10.17;7.83;;;11.90;99.90;;;;;;5076394;28;20472;-80
2022/04/24 02:16:17;;;;;;;12.57;8.97;;;11.90;99.90;;;;;;5090992;28;20385;-81
2022/04/24 02:19:02;;;;;;;12.17;9.33;;;11.90;99.90;;;;;;5075717;28;20420;-80
2022/04/24 02:21:46;;;;;;;11.10;8.20;;;11.90;99.90;;;;;;5075178;28;20373;-80
2022/04/24 02:24:31;;;;;;;10.00;7.40;;;11.80;99.90;;;;;;5090557;28;20388;-79
2022/04/24 02:27:16;;;;;;;11.20;7.57;;;11.90;99.90;;;;;;5090602;28;20439;-79
2022/04/24 02:30:00;;;;;;;11.30;7.87;;;11.90;99.90;;;;;;5092185;28;20421;-79
2022/04/24 02:32:46;;;;;;;12.37;8.50;;;11.90;99.90;;;;;;5091047;28;20886;-81
2022/04/24 02:35:30;;;;;;;11.07;8.03;;;12.00;99.90;;;;;;5091770;28;20450;-80
2022/04/24 02:38:15;;;;;;;13.33;8.50;;;11.90;99.90;;;;;;5091288;28;20409;-80
2022/04/24 02:40:59;;;;;;;14.53;9.47;;;11.90;99.90;;;;;;5092036;28;20389;-80
2022/04/24 02:43:44;;;;;;;9.20;7.13;;;12.00;99.90;;;;;;5091355;28;20377;-79
2022/04/24 02:46:29;;;;;;;9.90;8.00;;;12.00;99.90;;;;;;5091379;28;20436;-81
2022/04/24 02:49:13;;;;;;;10.20;8.43;;;12.00;99.90;;;;;;5076532;28;20393;-80
2022/04/24 02:51:59;;;;;;;10.83;8.43;;;12.00;99.90;;;;;;5091481;28;20384;-80
2022/04/24 02:54:44;;;;;;;9.23;8.00;;;12.00;99.90;;;;;;5090812;28;20389;-80
2022/04/24 02:57:30;;;;;;;9.83;8.10;;;12.10;99.90;;;;;;5029525;28;20455;-81
2022/04/24 03:00:20;;;;;;;11.83;7.07;;;12.10;99.90;;;;;;5029339;28;20391;-81
2022/04/24 03:03:07;;;;;;;8.47;6.80;;;12.10;99.90;;;;;;5029201;28;20568;-81
2022/04/24 03:05:52;;;;;;;7.97;6.20;;;12.00;99.90;;;;;;5016341;28;20420;-81
2022/04/24 03:08:36;;;;;;;10.57;5.70;;;11.90;99.90;;;;;;5016581;28;20453;-80
2022/04/24 03:11:21;;;;;;;6.70;6.00;;;11.80;99.90;;;;;;5028319;28;20461;-81
2022/04/24 03:14:05;;;;;;;6.83;5.73;;;11.80;99.90;;;;;;5014860;28;20532;-80
2022/04/24 03:16:49;;;;;;;5.93;5.33;;;11.70;99.90;;;;;;5029754;28;20451;-80
2022/04/24 03:19:33;;;;;;;8.63;6.27;;;11.60;99.90;;;;;;5016000;28;20569;-81
2022/04/24 03:22:18;;;;;;;6.60;5.10;;;11.60;99.90;;;;;;5015657;28;20915;-81
2022/04/24 03:25:06;;;;;;;5.80;5.13;;;11.50;99.90;;;;;;5027888;28;20464;-81
2022/04/24 03:27:52;;;;;;;5.97;5.20;;;11.50;99.90;;;;;;5050550;28;20491;-81
2022/04/24 03:30:37;;;;;;;6.20;5.63;;;11.40;99.90;;;;;;5090835;28;20381;-81
2022/04/24 03:33:22;;;;;;;8.13;5.83;;;11.40;99.90;;;;;;5075594;28;20400;-80
2022/04/24 03:36:07;;;;;;;9.17;6.87;;;11.40;99.90;;;;;;5091207;28;20777;-80
2022/04/24 03:38:52;;;;;;;8.30;6.60;;;11.40;99.90;;;;;;5089872;28;20434;-81
2022/04/24 03:41:37;;;;;;;7.57;6.63;;;11.40;99.90;;;;;;5078384;28;20503;-81
2022/04/24 03:44:21;;;;;;;7.10;6.40;;;11.50;99.90;;;;;;5082674;28;20385;-80
2022/04/24 03:47:06;;;;;;;7.50;6.40;;;11.50;99.90;;;;;;5096106;28;20475;-79
2022/04/24 03:49:52;;;;;;;11.53;6.80;;;11.50;99.90;;;;;;5098144;28;20393;-81
2022/04/24 03:52:36;;;;;;;10.40;6.83;;;11.50;99.90;;;;;;5097697;28;20434;-81
2022/04/24 03:55:21;;;;;;;9.00;7.13;;;11.50;99.90;;;;;;5101400;28;20420;-80
2022/04/24 03:58:06;;;;;;;8.40;6.23;;;11.50;99.90;;;;;;5101348;28;20385;-80
2022/04/24 04:00:50;;;;;;;9.20;7.23;;;11.50;99.90;;;;;;5101082;28;20401;-80
2022/04/24 04:03:35;;;;;;;10.00;7.60;;;11.50;99.90;;;;;;5095887;28;20472;-81
2022/04/24 04:06:20;;;;;;;10.90;7.67;;;11.50;99.90;;;;;;5094892;28;20389;-80
2022/04/24 04:09:04;;;;;;;10.07;6.80;;;11.50;99.90;;;;;;5092891;28;20475;-80
2022/04/24 04:11:54;;;;;;;8.60;7.40;;;11.60;99.90;;;;;;5093846;28;20392;-80
2022/04/24 04:14:38;;;;;;;9.70;7.50;;;11.50;99.90;;;;;;5094401;28;20444;-80
2022/04/24 04:17:23;;;;;;;6.77;6.00;;;11.50;99.90;;;;;;5093145;28;20428;-80
2022/04/24 04:20:11;;;;;;;8.40;7.70;;;11.50;99.90;;;;;;5091084;28;20808;-81
2022/04/24 04:22:56;;;;;;;7.23;6.50;;;11.50;99.90;;;;;;5092478;28;20488;-80
2022/04/24 04:25:40;;;;;;;7.57;6.83;;;11.50;99.90;;;;;;5093669;28;20411;-80
2022/04/24 04:28:25;;;;;;;10.40;9.37;;;11.50;99.90;;;;;;5093389;28;20501;-80
2022/04/24 04:31:10;;;;;;;9.23;7.57;;;11.50;99.90;;;;;;5093421;28;20389;-80
2022/04/24 04:33:55;;;;;;;8.77;7.80;;;11.50;99.90;;;;;;5093816;28;20826;-80
2022/04/24 04:36:39;;;;;;;8.97;7.70;;;11.50;99.90;;;;;;5093010;28;20472;-80
2022/04/24 04:39:24;;;;;;;10.63;8.43;;;11.60;99.90;;;;;;5092917;28;20381;-79
2022/04/24 04:42:09;;;;;;;9.27;7.00;;;11.50;99.90;;;;;;5078648;28;20729;-80
2022/04/24 04:44:56;;;;;;;10.07;8.10;;;11.60;99.90;;;;;;5093112;28;20390;-80
2022/04/24 04:47:40;;;;;;;11.53;8.80;;;11.60;99.90;;;;;;5092494;28;20484;-79
2022/04/24 04:50:24;;;;;;;14.13;8.80;;;11.70;99.90;;;;;;5092854;28;20389;-80
2022/04/24 04:53:09;;;;;;;19.90;9.20;;;11.80;99.90;;;;;;5092754;28;20389;-81
2022/04/24 04:55:54;;;;;;;8.00;7.20;;;11.80;99.90;;;;;;5093048;28;20481;-80
2022/04/24 04:58:39;;;;;;;11.83;8.00;;;11.80;99.90;;;;;;5092349;28;20393;-80
2022/04/24 05:01:23;;;;;;;11.80;7.13;;;11.70;99.90;;;;;;5091904;28;20409;-81
2022/04/24 05:04:07;;;;;;;9.60;7.53;;;11.70;99.90;;;;;;5090714;28;20513;-80
2022/04/24 05:06:52;;;;;;;17.00;9.20;;;11.70;99.90;;;;;;5092307;28;21063;-80
2022/04/24 05:09:36;;;;;;;9.70;8.53;;;11.80;99.90;;;;;;5093430;28;20378;-80
2022/04/24 05:12:27;;;;;;;10.27;7.70;;;11.80;99.90;;;;;;5092899;28;20438;-80
2022/04/24 05:15:15;;;;;;;15.03;10.00;;;11.90;99.90;;;;;;5092118;28;20392;-80
2022/04/24 05:17:59;;;;;;;12.47;8.53;;;12.00;99.90;;;;;;5092568;28;20388;-80
2022/04/24 05:20:44;;;;;;;10.20;8.30;;;12.10;99.90;;;;;;5092737;28;20451;-80
2022/04/24 05:23:29;;;;;;;8.93;7.83;;;12.10;99.90;;;;;;5092150;28;20385;-81
2022/04/24 05:26:14;;;;;;;9.73;8.37;;;12.10;99.90;;;;;;5091756;28;20412;-79
2022/04/24 05:28:58;;;;;;;13.23;9.60;;;12.10;99.90;;;;;;5091293;28;20446;-80
2022/04/24 05:31:43;;;;;;;10.57;9.47;;;12.20;99.90;;;;;;5091802;28;20417;-80
2022/04/24 05:34:27;;;;;;;14.17;10.03;;;12.20;99.90;;;;;;5092577;28;20388;-80
2022/04/24 05:37:12;;;;;;;10.50;9.00;;;12.20;99.90;;;;;;5092599;28;20456;-80
2022/04/24 05:39:57;;;;;;;13.90;10.23;;;12.10;99.90;;;;;;5091643;28;20443;-80
2022/04/24 05:42:53;;;;;;;10.63;9.00;;;12.10;99.90;;;;;;5091499;28;20404;-80
2022/04/24 05:45:38;;;;;;;11.03;9.40;;;12.00;99.90;;;;;;5091739;28;20385;-80
2022/04/24 05:48:25;;;;;;;11.10;8.57;;;12.10;99.90;;;;;;5092160;28;20445;-80
2022/04/24 05:51:09;;;;;;;10.97;9.13;;;12.00;99.90;;;;;;5092083;28;20420;-79
2022/04/24 05:53:54;;;;;;;14.03;11.70;;;12.10;99.90;;;;;;5091412;28;20389;-80
2022/04/24 05:56:39;;;;;;;9.40;7.93;;;12.20;99.90;;;;;;5091453;28;20424;-80
2022/04/24 05:59:23;;;;;;;10.47;8.63;;;12.30;99.90;;;;;;5091090;28;20415;-80
2022/04/24 06:02:08;;;;;;;12.23;9.93;;;12.20;99.90;;;;;;5089690;28;20389;-79
2022/04/24 06:04:54;;;;;;;11.17;8.90;;;12.30;99.90;;;;;;5091394;28;20499;-80
2022/04/24 06:07:41;;;;;;;13.60;8.90;;;12.30;99.90;;;;;;5091674;28;20440;-80
2022/04/24 06:10:25;;;;;;;10.60;8.70;;;12.20;99.90;;;;;;5092048;28;20400;-80
2022/04/24 06:13:11;;;;;;;15.50;9.53;;;12.00;99.90;;;;;;5090188;28;20384;-79
2022/04/24 06:15:57;;;;;;;9.83;8.07;;;11.90;99.90;;;;;;5090875;28;20384;-80
2022/04/24 06:18:42;;;;;;;15.50;10.97;;;11.80;99.90;;;;;;5091492;28;20765;-80
2022/04/24 06:21:26;;;;;;;17.67;8.63;;;11.80;99.90;;;;;;5091628;28;20401;-80
2022/04/24 06:24:10;;;;;;;17.17;11.07;;;11.80;99.90;;;;;;5091503;28;20495;-81
2022/04/24 06:26:55;;;;;;;12.83;9.53;;;11.90;99.90;;;;;;5090188;28;20515;-79
2022/04/24 06:29:40;;;;;;;11.10;9.47;;;11.90;99.90;;;;;;5091907;28;20388;-80
2022/04/24 06:32:28;;;;;;;11.50;10.17;;;11.90;99.90;;;;;;5091472;28;20380;-80
2022/04/24 06:35:15;;;;;;;11.90;8.47;;;12.00;99.90;;;;;;5092103;28;20408;-79
2022/04/24 06:37:59;;;;;;;12.60;8.93;;;12.10;99.90;;;;;;5092227;28;20393;-82
2022/04/24 06:40:45;;;;;;;12.93;10.40;;;12.00;99.90;;;;;;5091392;28;20735;-80
2022/04/24 06:43:29;;;;;;;12.43;11.10;;;12.00;99.90;;;;;;5093427;28;20400;-80
2022/04/24 06:46:14;;;;;;;11.73;10.03;;;12.10;99.90;;;;;;5098667;28;20381;-80
2022/04/24 06:48:59;;;;;;;11.27;10.17;;;12.10;99.90;;;;;;5098153;28;20395;-80
2022/04/24 06:51:43;;;;;;;12.50;11.13;;;12.20;99.90;;;;;;5098211;28;20397;-79
2022/04/24 06:54:28;;;;;;;12.60;10.17;;;12.20;99.90;;;;;;5098166;28;20447;-79
2022/04/24 06:57:12;;;;;;;12.50;10.07;;;12.30;99.90;;;;;;5098472;28;20374;-79
2022/04/24 06:59:56;;;;;;;15.97;12.90;;;12.30;99.90;;;;;;5098462;28;20412;-80
2022/04/24 07:02:41;;;;;;;18.20;11.57;;;12.30;99.90;;;;;;5098242;28;20396;-79
2022/04/24 07:05:27;;;;;;;19.33;15.37;;;12.40;99.90;;;;;;5097974;28;20441;-80
2022/04/24 07:08:11;;;;;;;15.10;10.37;;;12.40;99.90;;;;;;5096883;28;20441;-81
2022/04/24 07:10:58;;;;;;;16.00;11.40;;;12.40;99.90;;;;;;5097420;28;20407;-80
2022/04/24 07:13:44;;;;;;;13.30;11.87;;;12.40;99.90;;;;;;5093960;28;20462;-80
2022/04/24 07:16:28;;;;;;;16.83;12.00;;;12.40;99.90;;;;;;5096846;28;20455;-80
2022/04/24 07:19:12;;;;;;;14.50;12.10;;;12.30;99.90;;;;;;5094745;28;20389;-79
2022/04/24 07:21:57;;;;;;;15.53;11.73;;;12.40;99.90;;;;;;5094733;28;20389;-81
2022/04/24 07:24:41;;;;;;;15.53;12.17;;;12.40;99.90;;;;;;5091101;28;20431;-80
2022/04/24 07:27:26;;;;;;;12.80;10.77;;;12.30;99.90;;;;;;5095089;28;20441;-81
2022/04/24 07:30:13;;;;;;;15.17;11.20;;;12.40;99.90;;;;;;5094436;28;20411;-80
2022/04/24 07:33:18;;;;;;;15.70;12.73;;;12.40;99.90;;;;;;5093499;28;20396;-81
2022/04/24 07:36:04;;;;;;;12.70;11.40;;;12.40;99.90;;;;;;5053337;28;20497;-80
2022/04/24 07:38:50;;;;;;;15.43;11.80;;;12.40;99.90;;;;;;5052892;28;20403;-80
2022/04/24 07:41:34;;;;;;;13.00;10.90;;;12.40;99.90;;;;;;5052931;28;20415;-80
2022/04/24 07:44:19;;;;;;;16.07;11.67;;;12.40;99.90;;;;;;5052833;28;20418;-80
2022/04/24 07:47:03;;;;;;;16.73;12.10;;;12.40;99.90;;;;;;5052823;28;20434;-80
2022/04/24 07:49:48;;;;;;;19.13;12.67;;;12.30;99.90;;;;;;5052357;28;20457;-80
2022/04/24 07:52:32;;;;;;;15.00;11.60;;;12.30;99.90;;;;;;5053306;28;20750;-80
2022/04/24 07:55:19;;;;;;;14.60;12.90;;;12.30;99.90;;;;;;5053239;28;20431;-80
2022/04/24 07:58:03;;;;;;;14.90;11.33;;;12.20;99.90;;;;;;5053081;28;20401;-80
2022/04/24 08:00:48;;;;;;;15.30;12.57;;;12.20;99.90;;;;;;5039144;28;20498;-78
2022/04/24 08:03:33;;;;;;;13.93;11.47;;;12.20;99.90;;;;;;5038112;28;20505;-81
2022/04/24 08:06:17;;;;;;;13.20;10.73;;;12.10;99.90;;;;;;5065000;28;20424;-81
2022/04/24 08:09:02;;;;;;;14.30;12.33;;;12.20;99.90;;;;;;5094145;28;20388;-80
2022/04/24 08:11:47;;;;;;;20.33;12.17;;;11.90;99.90;;;;;;5094051;28;20385;-79
2022/04/24 08:14:32;;;;;;;19.60;12.37;;;11.80;99.90;;;;;;5093108;28;20508;-80
2022/04/24 08:17:16;;;;;;;13.17;11.77;;;11.60;99.90;;;;;;5093832;28;20381;-81
2022/04/24 08:20:02;;;;;;;16.73;12.03;;;11.50;99.90;;;;;;5094373;28;20427;-81
2022/04/24 08:22:50;;;;;;;17.53;12.77;;;11.30;99.90;;;;;;5093734;28;20416;-80
2022/04/24 08:25:35;;;;;;;15.90;11.87;;;11.20;99.90;;;;;;5093268;28;20413;-80
2022/04/24 08:28:21;;;;;;;21.47;14.17;;;11.00;99.90;;;;;;5093365;28;21023;-81
2022/04/24 08:31:06;;;;;;;21.83;11.57;;;10.90;99.90;;;;;;5093893;28;20438;-80
2022/04/24 08:33:50;;;;;;;17.63;12.90;;;11.00;99.90;;;;;;5093934;28;20389;-80
2022/04/24 08:36:35;;;;;;;17.23;13.33;;;10.90;99.90;;;;;;5092392;28;20413;-79
2022/04/24 08:39:20;;;;;;;19.60;14.67;;;10.90;99.90;;;;;;5099686;28;20411;-80
2022/04/24 08:42:07;;;;;;;17.60;13.47;;;10.80;99.90;;;;;;5099339;28;20443;-80
2022/04/24 08:44:56;;;;;;;21.63;15.10;;;10.70;99.90;;;;;;5100319;28;20444;-79
2022/04/24 08:47:41;;;;;;;22.53;14.70;;;10.70;99.90;;;;;;5098099;28;20451;-80
2022/04/24 08:50:29;;;;;;;17.93;13.93;;;10.90;99.90;;;;;;5092759;28;20385;-80
2022/04/24 08:53:15;;;;;;;27.20;15.60;;;10.80;99.90;;;;;;5093625;28;20378;-80
2022/04/24 08:56:00;;;;;;;19.23;12.93;;;10.80;99.90;;;;;;5091501;28;20440;-79
2022/04/24 08:58:45;;;;;;;20.47;14.50;;;10.60;99.90;;;;;;5091276;28;20389;-80
2022/04/24 09:01:32;;;;;;;22.77;14.70;;;10.70;99.90;;;;;;5091882;28;20458;-81
2022/04/24 09:04:16;;;;;;;16.93;13.27;;;10.90;99.90;;;;;;5091326;28;20497;-80
2022/04/24 09:07:04;;;;;;;13.90;11.13;;;10.80;99.90;;;;;;5091352;28;20448;-79
2022/04/24 09:09:50;;;;;;;15.50;11.10;;;10.70;99.90;;;;;;5091482;28;20542;-81
2022/04/24 09:12:35;;;;;;;14.43;10.67;;;10.60;99.90;;;;;;5058827;28;20401;-80
2022/04/24 09:15:19;;;;;;;13.13;9.37;;;10.80;99.90;;;;;;5076112;28;20468;-79
2022/04/24 09:18:04;;;;;;;11.63;9.30;;;10.80;99.90;;;;;;5075902;28;20394;-79
2022/04/24 09:20:56;;;;;;;12.43;10.07;;;10.70;99.90;;;;;;5073635;28;20572;-80
2022/04/24 09:23:42;;;;;;;11.17;8.30;;;10.80;99.90;;;;;;5067239;28;20385;-79
2022/04/24 09:26:27;;;;;;;14.10;10.27;;;10.60;99.90;;;;;;5054905;28;20463;-81
2022/04/24 09:29:12;;;;;;;14.40;7.60;;;10.80;99.90;;;;;;5068555;28;20414;-80
2022/04/24 09:31:56;;;;;;;8.63;6.90;;;10.50;99.90;;;;;;5069976;28;20394;-80
2022/04/24 09:34:41;;;;;;;9.50;6.70;;;10.50;99.90;;;;;;5070726;28;20385;-80
2022/04/24 09:37:26;;;;;;;10.17;6.87;;;10.50;99.90;;;;;;5070302;28;20414;-80
2022/04/24 09:40:11;;;;;;;9.00;7.50;;;10.60;99.90;;;;;;5070350;28;20481;-81
2022/04/24 09:42:56;;;;;;;5.27;4.80;;;10.60;99.90;;;;;;5078486;28;20467;-80
2022/04/24 09:45:41;;;;;;;5.13;4.40;;;10.80;99.90;;;;;;5092582;28;20396;-80
2022/04/24 09:48:26;;;;;;;5.77;3.80;;;10.40;99.90;;;;;;5091819;28;20798;-81
2022/04/24 09:51:12;;;;;;;3.67;3.03;;;10.30;99.90;;;;;;5092082;28;20412;-80
2022/04/24 09:54:00;;;;;;;8.67;3.60;;;10.20;99.90;;;;;;5092488;28;20385;-81
2022/04/24 09:56:46;;;;;;;7.20;4.00;;;9.80;99.90;;;;;;5069805;28;20455;-80
2022/04/24 09:59:32;;;;;;;10.00;3.10;;;10.10;99.90;;;;;;5069183;28;20410;-80
2022/04/24 10:02:17;;;;;;;4.80;3.20;;;10.00;99.90;;;;;;5025831;28;20859;-81
2022/04/24 10:05:04;;;;;;;3.50;2.97;;;10.00;99.90;;;;;;5070272;28;20806;-80
2022/04/24 10:07:50;;;;;;;4.23;3.10;;;9.90;99.90;;;;;;5075214;28;20460;-79
2022/04/24 10:10:35;;;;;;;4.13;3.50;;;9.90;99.90;;;;;;5075720;28;20441;-80
2022/04/24 10:13:21;;;;;;;3.90;3.00;;;9.70;99.90;;;;;;5075243;28;20483;-80
2022/04/24 10:16:31;;;;;;;5.47;3.90;;;9.90;99.90;;;;;;5074748;28;20447;-79
2022/04/24 10:19:33;;;;;;;4.80;3.53;;;9.80;99.90;;;;;;5072791;28;20470;-81
2022/04/24 10:22:35;;;;;;;4.17;3.63;;;9.80;99.90;;;;;;5072108;28;20384;-81
2022/04/24 10:25:31;;;;;;;2.97;2.77;;;9.70;99.90;;;;;;5057494;28;20456;-81
2022/04/24 10:28:17;;;;;;;3.50;2.93;;;9.70;99.90;;;;;;5072885;28;20524;-80
2022/04/24 10:31:03;;;;;;;2.73;2.53;;;9.90;99.90;;;;;;5074162;28;20398;-79
2022/04/24 10:33:51;;;;;;;4.67;3.93;;;10.10;99.90;;;;;;5075284;28;20401;-79
2022/04/24 10:36:36;;;;;;;2.77;2.60;;;10.10;99.90;;;;;;5061895;28;20441;-81
2022/04/24 10:39:23;;;;;;;10.13;9.37;;;10.10;99.90;;;;;;5040855;28;20406;-81
2022/04/24 10:42:11;;;;;;;4.30;3.57;;;10.10;99.90;;;;;;5010466;28;20440;-80
2022/04/24 10:45:07;;;;;;;4.27;3.43;;;10.10;99.90;;;;;;5009904;28;20452;-81
2022/04/24 10:47:55;;;;;;;4.13;2.70;;;10.40;99.90;;;;;;5009006;28;20476;-81
2022/04/24 10:50:52;;;;;;;2.63;2.43;;;10.60;99.90;;;;;;4995703;28;20420;-81
2022/04/24 10:53:58;;;;;;;2.40;2.20;;;10.20;99.90;;;;;;5009499;28;20405;-81
2022/04/24 10:56:49;;;;;;;3.37;2.80;;;10.00;99.90;;;;;;5008033;28;20424;-78
2022/04/24 10:59:55;;;;;;;4.97;3.00;;;10.20;99.90;;;;;;5009238;28;20452;-81
2022/04/24 11:02:39;;;;;;;3.23;2.37;;;10.20;99.90;;;;;;5008519;28;20567;-81
2022/04/24 11:05:26;;;;;;;3.27;2.60;;;10.30;99.90;;;;;;4994869;28;20424;-80
2022/04/24 11:08:18;;;;;;;3.13;2.73;;;10.50;99.90;;;;;;4995813;28;20450;-80
2022/04/24 11:11:05;;;;;;;3.80;2.70;;;10.40;99.90;;;;;;5009213;28;20461;-80
2022/04/24 11:13:50;;;;;;;2.47;2.20;;;10.50;99.90;;;;;;5013387;28;20432;-80
2022/04/24 11:16:34;;;;;;;2.60;2.00;;;10.50;99.90;;;;;;5012644;28;20429;-80
2022/04/24 11:19:25;;;;;;;2.27;2.00;;;10.70;99.90;;;;;;5032452;28;20498;-80
2022/04/24 11:22:11;;;;;;;3.90;2.47;;;10.60;99.90;;;;;;5075972;28;20406;-79
2022/04/24 11:24:58;;;;;;;1.80;1.70;;;10.60;99.90;;;;;;5076412;28;20398;-80
2022/04/24 11:27:44;;;;;;;3.37;3.10;;;10.70;99.90;;;;;;5076296;28;20498;-79
2022/04/24 11:30:32;;;;;;;2.33;2.13;;;10.80;99.90;;;;;;5075624;28;20397;-80
2022/04/24 11:33:16;;;;;;;9.50;2.20;;;10.90;99.90;;;;;;5061711;28;20433;-80
2022/04/24 11:36:04;;;;;;;2.27;2.07;;;11.10;99.90;;;;;;5074167;28;20449;-79
2022/04/24 11:38:51;;;;;;;2.63;2.43;;;11.20;99.90;;;;;;5072519;28;20401;-80
2022/04/24 11:41:36;;;;;;;3.13;2.70;;;11.50;99.90;;;;;;5072469;28;20390;-80
2022/04/24 11:50:22;;;;;;;3.00;2.50;;;11.50;99.90;;;;;;5069877;28;20417;-80
2022/04/24 11:53:06;;;;;;;3.20;2.77;;;11.30;99.90;;;;;;5070030;28;20385;-80
2022/04/24 11:56:06;;;;;;;5.17;3.80;;;11.70;99.90;;;;;;5069201;28;20568;-79
2022/04/24 11:58:51;;;;;;;2.17;1.97;;;11.70;99.90;;;;;;5039790;28;20926;-81
2022/04/24 12:01:36;;;;;;;2.47;2.27;;;12.10;99.90;;;;;;5072169;28;20412;-80
2022/04/24 12:04:21;;;;;;;2.07;1.87;;;11.80;99.90;;;;;;5072901;28;20468;-81
2022/04/24 12:07:08;;;;;;;2.97;1.90;;;11.30;99.90;;;;;;5072757;28;20468;-80
2022/04/24 12:10:04;;;;;;;4.63;4.33;;;11.10;99.90;;;;;;5071386;28;20378;-80
2022/04/24 12:12:50;;;;;;;2.27;2.00;;;11.50;99.90;;;;;;5073069;28;20445;-81
2022/04/24 12:15:35;;;;;;;4.30;2.30;;;11.30;99.90;;;;;;5057971;28;20386;-81
2022/04/24 12:18:24;;;;;;;2.40;2.20;;;11.50;99.90;;;;;;5074112;28;20459;-81
2022/04/24 12:21:19;;;;;;;1.70;1.60;;;11.40;99.90;;;;;;5073097;28;20402;-81
2022/04/24 12:24:03;;;;;;;1.87;1.50;;;11.40;99.90;;;;;;5058001;28;20500;-80
2022/04/24 12:26:51;;;;;;;2.70;2.10;;;11.20;99.90;;;;;;5057463;28;20492;-80
2022/04/24 12:29:41;;;;;;;1.90;1.80;;;11.10;99.90;;;;;;5073778;28;20450;-80
2022/04/24 12:32:28;;;;;;;4.70;2.40;;;11.20;99.90;;;;;;5072341;28;20386;-81
2022/04/24 12:35:33;;;;;;;3.10;2.80;;;11.20;99.90;;;;;;5073040;28;20398;-80
2022/04/24 12:38:20;;;;;;;1.93;1.80;;;11.20;99.90;;;;;;5059546;28;20386;-80
2022/04/24 12:41:11;;;;;;;2.23;2.13;;;11.10;99.90;;;;;;5058619;28;20413;-80
2022/04/24 12:44:01;;;;;;;2.10;2.00;;;11.20;99.90;;;;;;5045570;28;20390;-80
2022/04/24 12:46:47;;;;;;;2.30;2.10;;;11.10;99.90;;;;;;5045572;28;20488;-80
2022/04/24 12:49:32;;;;;;;1.93;1.83;;;11.10;99.90;;;;;;5073430;28;20436;-80
2022/04/24 12:52:21;;;;;;;1.90;1.70;;;11.00;99.90;;;;;;5056725;28;20387;-80
2022/04/24 12:55:06;;;;;;;1.90;1.70;;;11.10;99.90;;;;;;5071940;28;20479;-81
2022/04/24 12:57:54;;;;;;;1.87;1.77;;;11.00;99.90;;;;;;5073224;28;20745;-81
2022/04/24 13:00:38;;;;;;;1.80;1.70;;;11.20;99.90;;;;;;5071748;28;20390;-80
2022/04/24 13:03:24;;;;;;;1.80;1.70;;;11.10;99.90;;;;;;5072994;28;20500;-80
2022/04/24 13:06:10;;;;;;;1.67;1.57;;;11.00;99.90;;;;;;5074015;28;20445;-79
2022/04/24 13:08:54;;;;;;;1.33;1.23;;;11.00;99.90;;;;;;5072750;28;20398;-80
2022/04/24 13:11:39;;;;;;;1.80;1.70;;;10.90;99.90;;;;;;5073282;28;20373;-80
2022/04/24 13:14:24;;;;;;;2.07;1.93;;;10.90;99.90;;;;;;5073566;28;20378;-79
2022/04/24 13:20:11;;;;;;;2.03;1.83;;;10.90;99.90;;;;;;5073314;28;20417;-79
2022/04/24 13:22:56;;;;;;;3.07;2.93;;;10.80;99.90;;;;;;5059531;28;20430;-81
2022/04/24 13:25:41;;;;;;;2.03;1.93;;;10.60;99.90;;;;;;5057945;28;20394;-80
2022/04/24 13:28:26;;;;;;;1.83;1.73;;;10.60;99.90;;;;;;5073137;28;20429;-79
2022/04/24 13:31:13;;;;;;;2.17;1.97;;;10.70;99.90;;;;;;5076175;28;20397;-81
2022/04/24 13:33:58;;;;;;;1.87;1.67;;;10.70;99.90;;;;;;5076818;28;20436;-80
2022/04/24 13:36:44;;;;;;;2.63;2.10;;;10.40;99.90;;;;;;5076649;28;20425;-80
2022/04/24 13:39:29;;;;;;;5.90;2.90;;;10.40;99.90;;;;;;5077347;28;20406;-80
2022/04/24 13:42:15;;;;;;;2.87;2.57;;;10.40;99.90;;;;;;5077164;28;20390;-80
2022/04/24 13:45:00;;;;;;;2.63;2.43;;;10.50;99.90;;;;;;5076116;28;20416;-80
2022/04/24 13:47:45;;;;;;;2.47;2.27;;;10.40;99.90;;;;;;5076416;28;20454;-80
2022/04/24 13:50:31;;;;;;;2.73;2.50;;;10.40;99.90;;;;;;5075782;28;20404;-80
2022/04/24 13:53:16;;;;;;;5.50;2.17;;;10.50;99.90;;;;;;5058470;28;20951;-80
2022/04/24 13:56:01;;;;;;;2.33;2.13;;;10.40;99.90;;;;;;5058403;28;20417;-80
2022/04/24 13:58:46;;;;;;;2.40;2.07;;;10.60;99.90;;;;;;5057784;28;20414;-81
2022/04/24 14:01:31;;;;;;;2.20;1.80;;;10.50;99.90;;;;;;5071764;28;20417;-80
2022/04/24 14:04:15;;;;;;;1.87;1.70;;;10.60;99.90;;;;;;5069274;28;20458;-80
2022/04/24 14:07:01;;;;;;;3.73;2.40;;;10.60;99.90;;;;;;5071471;28;20477;-80
2022/04/24 14:09:47;;;;;;;1.83;1.73;;;10.80;99.90;;;;;;5071569;28;20436;-80
2022/04/24 14:12:31;;;;;;;2.30;2.10;;;11.00;99.90;;;;;;5070268;28;20385;-80
2022/04/24 14:15:18;;;;;;;3.53;2.10;;;10.90;99.90;;;;;;5053515;28;20954;-80
2022/04/24 14:18:03;;;;;;;1.43;1.33;;;10.80;99.90;;;;;;5047664;28;20455;-81
2022/04/24 14:20:48;;;;;;;1.50;1.40;;;10.70;99.90;;;;;;5060627;28;20386;-79
2022/04/24 14:23:33;;;;;;;2.47;1.50;;;10.70;99.90;;;;;;5075308;28;20385;-79
2022/04/24 14:26:18;;;;;;;1.87;1.63;;;10.70;99.90;;;;;;5075876;28;20434;-79